createdAt,value
2023-05-09T00:00:16.225Z,112.49
2023-05-09T00:01:16.797Z,113.08
2023-05-09T00:02:16.312Z,110.99
2023-05-09T00:03:16.295Z,110.46
2023-05-09T00:04:16.377Z,111.98
2023-05-09T00:05:16.643Z,112.28
2023-05-09T00:06:16.196Z,112.38
2023-05-09T00:07:16.167Z,112.53
2023-05-09T00:08:16.144Z,112.48
2023-05-09T00:09:16.119Z,112.52
2023-05-09T00:10:16.134Z,112.91
2023-05-09T00:11:16.096Z,113.42
2023-05-09T00:12:16.054Z,115.15
2023-05-09T00:13:16.107Z,115.46
2023-05-09T00:14:16.021Z,116.51
2023-05-09T00:15:16.215Z,114.76
2023-05-09T00:16:16.021Z,114.21
2023-05-09T00:17:16.053Z,114.72
2023-05-09T00:18:15.950Z,114.95
2023-05-09T00:19:15.933Z,114.10
2023-05-09T00:20:15.931Z,113.06
2023-05-09T00:21:15.923Z,111.68
2023-05-09T00:22:15.867Z,114.50
2023-05-09T00:23:15.848Z,113.76
2023-05-09T00:24:15.868Z,113.11
2023-05-09T00:25:16.012Z,112.77
2023-05-09T00:26:15.790Z,114.99
2023-05-09T00:27:15.769Z,115.83
2023-05-09T00:28:15.746Z,114.67
2023-05-09T00:29:15.734Z,116.34
2023-05-09T00:30:15.705Z,113.53
2023-05-09T00:31:15.682Z,114.42
2023-05-09T00:32:15.773Z,114.48
2023-05-09T00:33:15.742Z,114.53
2023-05-09T00:34:15.610Z,113.48
2023-05-09T00:35:15.794Z,111.50
2023-05-09T00:36:15.577Z,109.97
2023-05-09T00:37:15.539Z,112.59
2023-05-09T00:38:15.509Z,115.74
2023-05-09T00:39:15.488Z,115.83
2023-05-09T00:40:15.470Z,115.86
2023-05-09T00:41:15.470Z,114.85
2023-05-09T00:42:15.424Z,115.54
2023-05-09T00:43:15.413Z,117.34
2023-05-09T00:44:15.406Z,116.16
2023-05-09T00:45:15.591Z,114.13
2023-05-09T00:46:15.368Z,112.10
2023-05-09T00:47:15.330Z,112.49
2023-05-09T00:48:15.292Z,110.74
2023-05-09T00:49:15.368Z,108.54
2023-05-09T00:50:15.286Z,107.29
2023-05-09T00:51:15.248Z,108.97
2023-05-09T00:52:15.254Z,110.03
2023-05-09T00:53:15.206Z,113.18
2023-05-09T00:54:15.219Z,112.58
2023-05-09T00:55:15.332Z,113.65
2023-05-09T00:56:15.163Z,111.12
2023-05-09T00:57:15.141Z,111.28
2023-05-09T00:58:15.107Z,110.63
2023-05-09T00:59:17.492Z,110.06
2023-05-09T01:00:15.137Z,107.20
2023-05-09T01:01:15.215Z,108.98
2023-05-09T01:02:15.218Z,108.81
2023-05-09T01:03:15.251Z,107.97
2023-05-09T01:04:15.200Z,108.99
2023-05-09T01:05:15.679Z,109.15
2023-05-09T01:06:15.171Z,110.80
2023-05-09T01:07:15.197Z,108.37
2023-05-09T01:08:15.218Z,107.32
2023-05-09T01:09:15.193Z,104.62
2023-05-09T01:10:15.232Z,105.47
2023-05-09T01:11:15.197Z,104.22
2023-05-09T01:12:15.197Z,106.05
2023-05-09T01:13:15.275Z,108.20
2023-05-09T01:14:15.200Z,107.45
2023-05-09T01:15:15.485Z,105.79
2023-05-09T01:16:15.237Z,106.49
2023-05-09T01:17:15.203Z,104.76
2023-05-09T01:18:15.220Z,104.17
2023-05-09T01:19:15.212Z,103.54
2023-05-09T01:20:15.209Z,102.65
2023-05-09T01:21:15.377Z,102.72
2023-05-09T01:22:16.806Z,100.72
2023-05-09T01:23:15.235Z,99.31
2023-05-09T01:24:15.287Z,99.01
2023-05-09T01:25:15.689Z,98.86
2023-05-09T01:26:15.253Z,96.76
2023-05-09T01:27:15.226Z,98.36
2023-05-09T01:28:15.264Z,98.74
2023-05-09T01:29:15.283Z,98.81
2023-05-09T01:30:15.258Z,103.12
2023-05-09T01:31:15.305Z,100.97
2023-05-09T01:32:15.266Z,100.82
2023-05-09T01:33:15.299Z,102.98
2023-05-09T01:34:15.308Z,103.21
2023-05-09T01:35:15.560Z,102.34
2023-05-09T01:36:15.304Z,100.81
2023-05-09T01:37:15.412Z,98.29
2023-05-09T01:38:15.336Z,94.06
2023-05-09T01:39:15.346Z,98.52
2023-05-09T01:40:15.375Z,99.22
2023-05-09T01:41:15.375Z,98.52
2023-05-09T01:42:15.421Z,97.22
2023-05-09T01:43:15.385Z,99.90
2023-05-09T01:44:15.446Z,102.46
2023-05-09T01:45:15.943Z,102.75
2023-05-09T01:46:15.459Z,104.02
2023-05-09T01:47:15.460Z,101.50
2023-05-09T01:48:15.461Z,101.69
2023-05-09T01:49:15.482Z,103.65
2023-05-09T01:50:15.519Z,104.26
2023-05-09T01:51:15.542Z,103.72
2023-05-09T01:52:15.512Z,103.83
2023-05-09T01:53:15.591Z,102.20
2023-05-09T01:54:15.531Z,103.85
2023-05-09T01:55:15.714Z,104.93
2023-05-09T01:56:15.550Z,102.61
2023-05-09T01:57:15.582Z,100.43
2023-05-09T01:58:15.557Z,98.62
2023-05-09T01:59:15.601Z,97.22
2023-05-09T02:00:15.602Z,96.79
2023-05-09T02:01:15.772Z,96.51
2023-05-09T02:02:15.647Z,100.82
2023-05-09T02:03:15.644Z,102.32
2023-05-09T02:04:15.620Z,102.28
2023-05-09T02:05:15.897Z,103.13
2023-05-09T02:06:15.621Z,104.75
2023-05-09T02:07:15.659Z,103.19
2023-05-09T02:08:15.632Z,100.85
2023-05-09T02:09:15.752Z,99.72
2023-05-09T02:10:15.670Z,103.70
2023-05-09T02:11:15.699Z,102.09
2023-05-09T02:12:15.704Z,101.57
2023-05-09T02:13:15.758Z,102.45
2023-05-09T02:14:15.723Z,101.28
2023-05-09T02:15:15.987Z,100.56
2023-05-09T02:16:15.823Z,100.07
2023-05-09T02:17:15.754Z,100.06
2023-05-09T02:18:15.778Z,97.68
2023-05-09T02:19:15.812Z,97.50
2023-05-09T02:20:15.795Z,97.33
2023-05-09T02:21:15.881Z,96.92
2023-05-09T02:22:15.876Z,96.06
2023-05-09T02:23:15.827Z,98.20
2023-05-09T02:24:15.968Z,97.91
2023-05-09T02:25:16.281Z,99.18
2023-05-09T02:26:15.869Z,100.94
2023-05-09T02:27:15.895Z,102.52
2023-05-09T02:28:15.897Z,104.43
2023-05-09T02:29:15.898Z,106.22
2023-05-09T02:30:15.902Z,107.77
2023-05-09T02:31:15.908Z,108.88
2023-05-09T02:32:15.950Z,108.56
2023-05-09T02:33:15.946Z,108.20
2023-05-09T02:34:15.943Z,108.15
2023-05-09T02:35:16.156Z,107.72
2023-05-09T02:36:15.982Z,110.60
2023-05-09T02:37:15.998Z,112.24
2023-05-09T02:38:16.018Z,109.89
2023-05-09T02:39:16.016Z,108.87
2023-05-09T02:40:16.091Z,108.48
2023-05-09T02:41:16.154Z,111.41
2023-05-09T02:42:16.074Z,113.25
2023-05-09T02:43:16.078Z,112.53
2023-05-09T02:44:16.087Z,113.56
2023-05-09T02:45:16.276Z,111.70
2023-05-09T02:46:16.139Z,114.41
2023-05-09T02:47:16.132Z,112.58
2023-05-09T02:48:16.132Z,111.51
2023-05-09T02:49:30.875Z,112.66
2023-05-09T02:50:17.120Z,112.70
2023-05-09T02:51:16.105Z,113.06
2023-05-09T02:52:16.079Z,112.90
2023-05-09T02:53:16.052Z,113.62
2023-05-09T02:54:16.028Z,114.04
2023-05-09T02:55:16.391Z,114.57
2023-05-09T02:56:15.980Z,116.54
2023-05-09T02:57:16.042Z,117.30
2023-05-09T02:58:15.917Z,119.09
2023-05-09T02:59:15.903Z,118.88
2023-05-09T03:00:15.885Z,119.67
2023-05-09T03:01:15.885Z,121.31
2023-05-09T03:02:15.846Z,122.61
2023-05-09T03:03:15.909Z,123.16
2023-05-09T03:04:15.810Z,122.84
2023-05-09T03:05:15.970Z,122.42
2023-05-09T03:06:15.776Z,118.64
2023-05-09T03:07:15.770Z,116.54
2023-05-09T03:08:15.740Z,114.72
2023-05-09T03:09:15.744Z,115.72
2023-05-09T03:10:15.764Z,114.91
2023-05-09T03:11:15.759Z,118.72
2023-05-09T03:12:15.787Z,120.52
2023-05-09T03:13:15.891Z,118.82
2023-05-09T03:14:15.838Z,118.99
2023-05-09T03:15:15.925Z,120.16
2023-05-09T03:16:15.838Z,120.90
2023-05-09T03:17:15.855Z,123.17
2023-05-09T03:18:15.846Z,121.52
2023-05-09T03:19:15.870Z,120.53
2023-05-09T03:20:15.923Z,122.70
2023-05-09T03:21:15.903Z,123.21
2023-05-09T03:22:15.909Z,122.07
2023-05-09T03:23:15.910Z,124.24
2023-05-09T03:24:15.942Z,120.70
2023-05-09T03:25:16.201Z,120.58
2023-05-09T03:26:15.953Z,120.23
2023-05-09T03:27:15.982Z,124.00
2023-05-09T03:28:15.981Z,124.18
2023-05-09T03:29:16.112Z,121.90
2023-05-09T03:30:16.018Z,121.26
2023-05-09T03:31:16.074Z,122.42
2023-05-09T03:32:16.037Z,120.42
2023-05-09T03:33:16.050Z,122.44
2023-05-09T03:34:16.056Z,125.16
2023-05-09T03:35:16.282Z,123.51
2023-05-09T03:36:16.099Z,121.41
2023-05-09T03:37:16.097Z,120.59
2023-05-09T03:38:16.121Z,123.88
2023-05-09T03:39:16.126Z,124.12
2023-05-09T03:40:16.139Z,126.25
2023-05-09T03:41:16.215Z,126.29
2023-05-09T03:42:16.181Z,125.33
2023-05-09T03:43:16.205Z,123.80
2023-05-09T03:44:16.198Z,123.49
2023-05-09T03:45:16.448Z,126.21
2023-05-09T03:46:16.248Z,128.06
2023-05-09T03:47:16.211Z,128.15
2023-05-09T03:48:16.181Z,128.36
2023-05-09T03:49:16.162Z,128.15
2023-05-09T03:50:16.163Z,127.93
2023-05-09T03:51:16.133Z,128.12
2023-05-09T03:52:16.118Z,128.48
2023-05-09T03:53:16.103Z,128.75
2023-05-09T03:54:16.092Z,128.26
2023-05-09T03:55:16.338Z,128.96
2023-05-09T03:56:16.039Z,130.22
2023-05-09T03:57:16.024Z,131.34
2023-05-09T03:58:16.012Z,132.26
2023-05-09T03:59:15.994Z,131.86
2023-05-09T04:00:15.979Z,129.76
2023-05-09T04:01:16.070Z,130.82
2023-05-09T04:02:16.012Z,130.16
2023-05-09T04:03:16.165Z,129.79
2023-05-09T04:04:15.913Z,127.98
2023-05-09T04:05:16.171Z,126.70
2023-05-09T04:06:15.887Z,126.87
2023-05-09T04:07:15.878Z,130.10
2023-05-09T04:08:15.871Z,130.60
2023-05-09T04:09:15.840Z,129.94
2023-05-09T04:10:15.806Z,129.63
2023-05-09T04:11:15.787Z,129.48
2023-05-09T04:12:15.830Z,130.43
2023-05-09T04:13:15.864Z,132.49
2023-05-09T04:14:15.856Z,130.80
2023-05-09T04:15:16.129Z,129.94
2023-05-09T04:16:15.943Z,128.71
2023-05-09T04:17:15.964Z,128.70
2023-05-09T04:18:15.895Z,130.70
2023-05-09T04:19:16.229Z,132.12
2023-05-09T04:20:15.893Z,133.56
2023-05-09T04:21:15.917Z,132.66
2023-05-09T04:22:15.946Z,133.18
2023-05-09T04:23:15.928Z,133.32
2023-05-09T04:24:15.909Z,133.35
2023-05-09T04:25:16.245Z,132.63
2023-05-09T04:26:15.886Z,132.78
2023-05-09T04:27:15.868Z,133.61
2023-05-09T04:28:15.863Z,134.88
2023-05-09T04:29:15.840Z,133.62
2023-05-09T04:30:15.847Z,133.98
2023-05-09T04:31:15.951Z,134.16
2023-05-09T04:32:15.903Z,134.21
2023-05-09T04:33:15.888Z,134.57
2023-05-09T04:34:15.798Z,135.10
2023-05-09T04:35:18.005Z,135.95
2023-05-09T04:36:15.763Z,134.34
2023-05-09T04:37:15.762Z,134.62
2023-05-09T04:38:15.744Z,135.56
2023-05-09T04:39:15.728Z,135.24
2023-05-09T04:40:15.711Z,136.70
2023-05-09T04:41:15.695Z,137.36
2023-05-09T04:42:15.681Z,138.03
2023-05-09T04:43:15.687Z,137.25
2023-05-09T04:44:15.666Z,139.07
2023-05-09T04:45:15.899Z,139.51
2023-05-09T04:46:15.681Z,140.19
2023-05-09T04:47:15.655Z,139.15
2023-05-09T04:48:15.659Z,139.30
2023-05-09T04:49:15.720Z,139.61
2023-05-09T04:50:15.622Z,140.58
2023-05-09T04:51:15.600Z,140.45
2023-05-09T04:52:15.578Z,141.12
2023-05-09T04:53:15.592Z,139.62
2023-05-09T04:54:15.558Z,140.89
2023-05-09T04:55:15.809Z,141.30
2023-05-09T04:56:15.542Z,139.85
2023-05-09T04:57:18.576Z,141.34
2023-05-09T04:58:15.526Z,140.54
2023-05-09T04:59:15.584Z,139.08
2023-05-09T05:00:15.495Z,137.90
2023-05-09T05:01:15.494Z,138.61
2023-05-09T05:02:15.509Z,140.04
2023-05-09T05:03:15.462Z,140.41
2023-05-09T05:04:15.514Z,140.08
2023-05-09T05:05:15.553Z,138.83
2023-05-09T05:06:15.458Z,140.25
2023-05-09T05:07:15.428Z,139.46
2023-05-09T05:08:15.449Z,138.01
2023-05-09T05:09:15.406Z,137.57
2023-05-09T05:10:15.391Z,136.15
2023-05-09T05:11:15.427Z,138.66
2023-05-09T05:12:15.369Z,142.09
2023-05-09T05:13:15.387Z,139.40
2023-05-09T05:14:15.384Z,137.31
2023-05-09T05:15:15.583Z,137.51
2023-05-09T05:16:15.318Z,137.80
2023-05-09T05:17:15.357Z,138.29
2023-05-09T05:18:15.296Z,138.09
2023-05-09T05:19:15.270Z,137.79
2023-05-09T05:20:15.310Z,139.66
2023-05-09T05:21:15.338Z,138.55
2023-05-09T05:22:15.250Z,136.96
2023-05-09T05:23:15.238Z,135.77
2023-05-09T05:24:15.248Z,135.13
2023-05-09T05:25:15.618Z,133.81
2023-05-09T05:26:15.190Z,133.92
2023-05-09T05:27:15.186Z,133.79
2023-05-09T05:28:15.243Z,135.44
2023-05-09T05:29:15.184Z,134.12
2023-05-09T05:30:15.277Z,132.82
2023-05-09T05:31:15.155Z,135.04
2023-05-09T05:32:15.106Z,135.21
2023-05-09T05:33:15.104Z,133.29
2023-05-09T05:34:15.131Z,135.13
2023-05-09T05:35:15.339Z,149.33
2023-05-09T05:36:15.056Z,149.86
2023-05-09T05:37:15.127Z,154.03
2023-05-09T05:38:15.022Z,164.93
2023-05-09T05:39:14.986Z,185.21
2023-05-09T05:40:14.986Z,215.11
2023-05-09T05:41:14.981Z,223.28
2023-05-09T05:42:14.960Z,226.29
2023-05-09T05:43:14.945Z,231.47
2023-05-09T05:44:14.941Z,235.42
2023-05-09T05:45:15.170Z,235.42
2023-05-09T05:46:14.885Z,239.61
2023-05-09T05:47:14.880Z,243.99
2023-05-09T05:48:14.846Z,242.48
2023-05-09T05:49:15.159Z,242.40
2023-05-09T05:50:14.904Z,245.65
2023-05-09T05:51:14.848Z,237.41
2023-05-09T05:52:14.777Z,238.89
2023-05-09T05:53:14.869Z,239.21
2023-05-09T05:54:14.758Z,238.54
2023-05-09T05:55:14.965Z,237.10
2023-05-09T05:56:14.688Z,235.49
2023-05-09T05:57:14.720Z,227.11
2023-05-09T05:58:14.652Z,222.69
2023-05-09T05:59:14.623Z,224.58
2023-05-09T06:00:14.724Z,215.14
2023-05-09T06:01:14.593Z,213.85
2023-05-09T06:02:14.618Z,213.72
2023-05-09T06:03:14.776Z,220.51
2023-05-09T06:04:14.660Z,230.39
2023-05-09T06:05:14.775Z,244.47
2023-05-09T06:06:14.500Z,248.22
2023-05-09T06:07:14.446Z,249.91
2023-05-09T06:08:14.480Z,250.00
2023-05-09T06:09:14.487Z,247.91
2023-05-09T06:10:14.434Z,250.00
2023-05-09T06:11:14.442Z,250.00
2023-05-09T06:12:14.640Z,249.95
2023-05-09T06:13:14.381Z,249.56
2023-05-09T06:14:14.421Z,250.00
2023-05-09T06:15:15.045Z,247.19
2023-05-09T06:16:19.911Z,243.29
2023-05-09T06:17:15.272Z,243.42
2023-05-09T06:18:14.318Z,243.44
2023-05-09T06:19:14.190Z,244.58
2023-05-09T06:20:14.178Z,245.02
2023-05-09T06:21:14.893Z,254.18
2023-05-09T06:22:14.212Z,243.90
2023-05-09T06:23:14.119Z,246.01
2023-05-09T06:24:20.144Z,248.44
2023-05-09T06:25:14.354Z,243.88
2023-05-09T06:26:14.028Z,245.36
2023-05-09T06:27:13.994Z,246.60
2023-05-09T06:28:13.960Z,254.54
2023-05-09T06:29:13.933Z,265.26
2023-05-09T06:30:24.582Z,251.50
2023-05-09T06:31:14.917Z,251.59
2023-05-09T06:32:13.937Z,250.56
2023-05-09T06:33:13.929Z,249.67
2023-05-09T06:34:13.827Z,247.50
2023-05-09T06:35:13.851Z,244.69
2023-05-09T06:36:13.742Z,241.31
2023-05-09T06:37:13.795Z,235.46
2023-05-09T06:38:13.800Z,235.59
2023-05-09T06:39:13.712Z,250.00
2023-05-09T06:40:13.751Z,247.62
2023-05-09T06:41:13.793Z,246.51
2023-05-09T06:42:13.920Z,245.36
2023-05-09T06:43:13.783Z,245.44
2023-05-09T06:44:13.769Z,245.58
2023-05-09T06:45:13.961Z,246.06
2023-05-09T06:46:13.747Z,244.90
2023-05-09T06:47:13.658Z,246.13
2023-05-09T06:48:13.734Z,246.27
2023-05-09T06:49:13.650Z,245.09
2023-05-09T06:50:13.701Z,244.06
2023-05-09T06:51:13.716Z,245.66
2023-05-09T06:52:13.788Z,245.40
2023-05-09T06:53:13.774Z,245.16
2023-05-09T06:54:13.852Z,246.97
2023-05-09T06:55:14.126Z,247.17
2023-05-09T06:56:13.918Z,244.43
2023-05-09T06:57:14.004Z,241.56
2023-05-09T06:58:14.423Z,238.55
2023-05-09T06:59:14.015Z,233.85
2023-05-09T07:00:14.069Z,229.61
2023-05-09T07:01:14.170Z,223.13
2023-05-09T07:02:14.158Z,223.21
2023-05-09T07:03:14.193Z,221.21
2023-05-09T07:04:14.237Z,216.80
2023-05-09T07:05:15.204Z,214.74
2023-05-09T07:06:14.269Z,213.80
2023-05-09T07:07:14.319Z,214.45
2023-05-09T07:08:14.408Z,211.49
2023-05-09T07:09:14.381Z,216.82
2023-05-09T07:10:14.404Z,216.45
2023-05-09T07:11:14.456Z,209.91
2023-05-09T07:12:14.595Z,211.67
2023-05-09T07:13:14.742Z,211.97
2023-05-09T07:14:14.545Z,213.34
2023-05-09T07:15:18.520Z,217.44
2023-05-09T07:16:15.586Z,217.64
2023-05-09T07:17:22.867Z,217.69
2023-05-09T07:18:15.555Z,217.67
2023-05-09T07:19:14.425Z,219.03
2023-05-09T07:20:14.430Z,221.65
2023-05-09T07:21:14.368Z,225.49
2023-05-09T07:22:14.456Z,229.79
2023-05-09T07:23:14.298Z,232.11
2023-05-09T07:24:14.329Z,233.43
2023-05-09T07:25:14.422Z,231.36
2023-05-09T07:26:14.188Z,229.10
2023-05-09T07:27:14.166Z,229.78
2023-05-09T07:28:14.166Z,229.94
2023-05-09T07:29:14.280Z,230.95
2023-05-09T07:30:14.408Z,232.67
2023-05-09T07:31:14.257Z,232.16
2023-05-09T07:32:14.656Z,235.68
2023-05-09T07:33:14.316Z,233.80
2023-05-09T07:34:14.245Z,234.91
2023-05-09T07:35:15.063Z,229.71
2023-05-09T07:36:14.313Z,231.27
2023-05-09T07:37:15.432Z,231.30
2023-05-09T07:38:14.471Z,231.70
2023-05-09T07:39:14.180Z,232.71
2023-05-09T07:40:14.538Z,232.10
2023-05-09T07:41:14.114Z,229.55
2023-05-09T07:42:14.264Z,226.87
2023-05-09T07:43:14.037Z,224.70
2023-05-09T07:44:14.116Z,224.58
2023-05-09T07:45:14.557Z,227.46
2023-05-09T07:46:14.207Z,228.96
2023-05-09T07:47:14.069Z,230.84
2023-05-09T07:48:14.284Z,230.28
2023-05-09T07:49:14.058Z,229.18
2023-05-09T07:50:14.218Z,228.08
2023-05-09T07:51:14.306Z,226.65
2023-05-09T07:52:14.119Z,229.20
2023-05-09T07:53:14.094Z,224.16
2023-05-09T07:54:14.165Z,223.04
2023-05-09T07:55:14.366Z,223.12
2023-05-09T07:56:14.091Z,226.74
2023-05-09T07:57:14.057Z,226.95
2023-05-09T07:58:13.977Z,227.73
2023-05-09T07:59:13.989Z,228.77
2023-05-09T08:00:13.929Z,229.49
2023-05-09T08:01:14.060Z,227.48
2023-05-09T08:02:13.855Z,221.38
2023-05-09T08:03:13.936Z,217.43
2023-05-09T08:04:14.111Z,217.81
2023-05-09T08:05:13.982Z,218.99
2023-05-09T08:06:13.696Z,217.73
2023-05-09T08:07:13.616Z,218.80
2023-05-09T08:08:13.551Z,218.60
2023-05-09T08:09:13.560Z,214.53
2023-05-09T08:10:13.551Z,212.11
2023-05-09T08:11:13.537Z,210.83
2023-05-09T08:12:13.518Z,208.40
2023-05-09T08:13:14.992Z,207.17
2023-05-09T08:14:15.638Z,209.38
2023-05-09T08:15:13.955Z,206.11
2023-05-09T08:16:13.534Z,205.60
2023-05-09T08:17:13.585Z,205.15
2023-05-09T08:18:13.483Z,204.28
2023-05-09T08:19:13.487Z,201.36
2023-05-09T08:20:13.492Z,201.18
2023-05-09T08:21:13.478Z,203.64
2023-05-09T08:22:13.544Z,199.42
2023-05-09T08:23:13.469Z,199.81
2023-05-09T08:24:13.464Z,201.17
2023-05-09T08:25:13.684Z,202.52
2023-05-09T08:26:13.459Z,202.96
2023-05-09T08:27:13.446Z,202.47
2023-05-09T08:28:13.444Z,199.84
2023-05-09T08:29:13.426Z,197.93
2023-05-09T08:30:13.463Z,196.98
2023-05-09T08:31:13.423Z,196.86
2023-05-09T08:32:13.422Z,170.87
2023-05-09T08:33:13.567Z,136.61
2023-05-09T08:34:13.467Z,98.50
2023-05-09T08:35:13.627Z,77.34
2023-05-09T08:36:13.518Z,56.34
2023-05-09T08:37:15.205Z,15.84
2023-05-09T08:38:14.521Z,0.00
2023-05-09T08:39:13.825Z,0.00
2023-05-09T08:40:13.863Z,0.00
2023-05-09T08:41:13.646Z,0.00
2023-05-09T08:42:13.693Z,0.00
2023-05-09T08:43:13.742Z,11.79
2023-05-09T08:44:13.978Z,30.40
2023-05-09T08:45:13.944Z,42.73
2023-05-09T08:46:13.995Z,48.93
2023-05-09T08:47:13.960Z,59.22
2023-05-09T08:48:14.061Z,74.00
2023-05-09T08:49:14.253Z,84.24
2023-05-09T08:50:14.100Z,101.19
2023-05-09T08:51:13.821Z,109.59
2023-05-09T08:52:13.772Z,110.85
2023-05-09T08:53:13.774Z,105.31
2023-05-09T08:54:13.734Z,85.63
2023-05-09T08:55:13.770Z,103.28
2023-05-09T08:56:13.775Z,86.41
2023-05-09T08:57:13.818Z,54.50
2023-05-09T08:58:13.927Z,62.07
2023-05-09T08:59:13.882Z,37.98
2023-05-09T09:00:14.177Z,25.19
2023-05-09T09:01:14.085Z,29.82
2023-05-09T09:02:13.999Z,49.72
2023-05-09T09:03:14.066Z,55.71
2023-05-09T09:04:14.034Z,59.92
2023-05-09T09:05:33.992Z,66.11
2023-05-09T09:06:15.038Z,66.25
2023-05-09T09:07:14.041Z,67.93
2023-05-09T09:08:13.945Z,72.68
2023-05-09T09:09:13.998Z,83.88
2023-05-09T09:10:14.322Z,104.37
2023-05-09T09:11:13.900Z,113.18
2023-05-09T09:12:13.901Z,120.03
2023-05-09T09:13:13.878Z,132.06
2023-05-09T09:14:13.764Z,136.12
2023-05-09T09:15:13.717Z,136.49
2023-05-09T09:16:13.893Z,138.47
2023-05-09T09:17:14.480Z,143.04
2023-05-09T09:18:14.677Z,152.55
2023-05-09T09:19:13.583Z,167.48
2023-05-09T09:20:13.864Z,170.43
2023-05-09T09:21:13.701Z,174.98
2023-05-09T09:22:13.530Z,178.07
2023-05-09T09:23:13.455Z,178.97
2023-05-09T09:24:13.472Z,184.92
2023-05-09T09:25:13.355Z,188.33
2023-05-09T09:26:13.321Z,180.12
2023-05-09T09:27:13.233Z,183.48
2023-05-09T09:28:13.194Z,187.26
2023-05-09T09:29:13.171Z,192.93
2023-05-09T09:30:13.367Z,193.00
2023-05-09T09:31:13.456Z,194.17
2023-05-09T09:32:13.161Z,195.99
2023-05-09T09:33:13.203Z,186.31
2023-05-09T09:34:13.129Z,170.97
2023-05-09T09:35:13.075Z,113.71
2023-05-09T09:36:13.072Z,54.14
2023-05-09T09:37:13.167Z,24.91
2023-05-09T09:38:13.085Z,25.97
2023-05-09T09:39:13.180Z,6.23
2023-05-09T09:40:13.357Z,9.54
2023-05-09T09:41:13.133Z,9.96
2023-05-09T09:42:13.152Z,14.02
2023-05-09T09:43:13.118Z,29.23
2023-05-09T09:44:13.147Z,59.26
2023-05-09T09:45:13.158Z,103.84
2023-05-09T09:46:13.025Z,13.06
2023-05-09T09:47:13.218Z,26.32
2023-05-09T09:48:12.890Z,49.56
2023-05-09T09:49:12.833Z,79.71
2023-05-09T09:50:12.976Z,125.79
2023-05-09T09:51:12.771Z,131.18
2023-05-09T09:52:12.722Z,134.85
2023-05-09T09:53:12.809Z,135.29
2023-05-09T09:54:12.743Z,139.05
2023-05-09T09:55:12.735Z,142.52
2023-05-09T09:56:12.768Z,144.85
2023-05-09T09:57:12.765Z,145.46
2023-05-09T09:58:12.734Z,149.21
2023-05-09T09:59:12.702Z,149.30
2023-05-09T10:00:12.849Z,150.24
2023-05-09T10:01:12.674Z,152.98
2023-05-09T10:02:12.586Z,161.18
2023-05-09T10:03:12.668Z,175.87
2023-05-09T10:04:12.543Z,181.09
2023-05-09T10:05:12.455Z,181.15
2023-05-09T10:06:12.375Z,181.88
2023-05-09T10:07:14.903Z,183.72
2023-05-09T10:08:12.290Z,186.94
2023-05-09T10:09:12.330Z,191.49
2023-05-09T10:10:12.312Z,195.87
2023-05-09T10:11:12.161Z,195.62
2023-05-09T10:12:12.184Z,196.88
2023-05-09T10:13:12.180Z,195.75
2023-05-09T10:14:12.015Z,195.69
2023-05-09T10:15:11.984Z,195.83
2023-05-09T10:16:12.048Z,195.75
2023-05-09T10:17:11.929Z,197.38
2023-05-09T10:18:12.007Z,198.10
2023-05-09T10:19:11.866Z,196.45
2023-05-09T10:20:11.890Z,199.79
2023-05-09T10:21:11.712Z,201.59
2023-05-09T10:22:11.651Z,201.72
2023-05-09T10:23:11.592Z,201.97
2023-05-09T10:24:11.587Z,177.44
2023-05-09T10:25:11.598Z,163.63
2023-05-09T10:26:11.475Z,145.40
2023-05-09T10:27:11.446Z,140.33
2023-05-09T10:28:11.414Z,147.91
2023-05-09T10:29:11.395Z,141.08
2023-05-09T10:30:11.373Z,164.89
2023-05-09T10:31:11.380Z,166.86
2023-05-09T10:32:11.249Z,164.03
2023-05-09T10:33:11.240Z,161.98
2023-05-09T10:34:11.194Z,164.09
2023-05-09T10:35:12.011Z,165.26
2023-05-09T10:36:11.089Z,164.90
2023-05-09T10:37:11.032Z,165.19
2023-05-09T10:38:11.000Z,168.00
2023-05-09T10:39:10.962Z,175.05
2023-05-09T10:40:10.956Z,180.60
2023-05-09T10:41:10.954Z,188.43
2023-05-09T10:42:10.827Z,195.29
2023-05-09T10:43:10.786Z,197.03
2023-05-09T10:44:10.753Z,197.45
2023-05-09T10:45:10.761Z,196.92
2023-05-09T10:46:10.701Z,199.16
2023-05-09T10:47:10.611Z,204.41
2023-05-09T10:48:10.564Z,207.49
2023-05-09T10:49:10.524Z,208.82
2023-05-09T10:50:10.491Z,205.66
2023-05-09T10:51:10.451Z,205.35
2023-05-09T10:52:10.445Z,206.45
2023-05-09T10:53:10.393Z,205.86
2023-05-09T10:54:10.360Z,204.96
2023-05-09T10:55:10.327Z,205.00
2023-05-09T10:56:10.315Z,206.62
2023-05-09T10:57:10.406Z,204.04
2023-05-09T10:58:10.242Z,202.20
2023-05-09T10:59:10.263Z,202.08
2023-05-09T11:00:10.209Z,203.32
2023-05-09T11:01:10.219Z,203.68
2023-05-09T11:02:10.184Z,203.26
2023-05-09T11:03:10.243Z,204.60
2023-05-09T11:04:10.157Z,203.23
2023-05-09T11:05:10.117Z,203.40
2023-05-09T11:06:10.077Z,200.78
2023-05-09T11:07:10.092Z,200.88
2023-05-09T11:08:10.046Z,197.58
2023-05-09T11:09:10.042Z,197.18
2023-05-09T11:10:10.066Z,197.38
2023-05-09T11:11:09.974Z,194.70
2023-05-09T11:12:10.107Z,194.85
2023-05-09T11:13:10.081Z,192.34
2023-05-09T11:14:09.919Z,194.44
2023-05-09T11:15:09.929Z,192.30
2023-05-09T11:16:09.996Z,190.41
2023-05-09T11:17:09.830Z,189.21
2023-05-09T11:18:09.915Z,187.71
2023-05-09T11:19:09.755Z,187.50
2023-05-09T11:20:09.824Z,186.25
2023-05-09T11:21:09.823Z,185.92
2023-05-09T11:22:09.676Z,184.39
2023-05-09T11:23:09.695Z,183.36
2023-05-09T11:24:09.635Z,182.15
2023-05-09T11:25:09.620Z,180.30
2023-05-09T11:26:09.649Z,180.62
2023-05-09T11:27:09.522Z,180.42
2023-05-09T11:28:09.530Z,180.28
2023-05-09T11:29:09.642Z,179.98
2023-05-09T11:30:09.696Z,180.52
2023-05-09T11:31:09.434Z,177.05
2023-05-09T11:32:09.437Z,176.68
2023-05-09T11:33:09.633Z,176.05
2023-05-09T11:34:09.365Z,174.73
2023-05-09T11:35:09.422Z,174.80
2023-05-09T11:36:09.310Z,174.74
2023-05-09T11:37:09.316Z,175.22
2023-05-09T11:38:09.303Z,174.84
2023-05-09T11:39:09.271Z,175.27
2023-05-09T11:40:09.257Z,174.18
2023-05-09T11:41:09.216Z,174.89
2023-05-09T11:42:09.209Z,174.62
2023-05-09T11:43:09.187Z,173.50
2023-05-09T11:44:09.147Z,173.27
2023-05-09T11:45:09.604Z,171.69
2023-05-09T11:46:09.140Z,170.52
2023-05-09T11:47:09.115Z,171.52
2023-05-09T11:48:09.147Z,171.11
2023-05-09T11:49:11.345Z,171.27
2023-05-09T11:50:09.014Z,169.66
2023-05-09T11:51:08.988Z,170.14
2023-05-09T11:52:08.950Z,170.44
2023-05-09T11:53:08.929Z,170.61
2023-05-09T11:54:08.908Z,169.19
2023-05-09T11:55:10.238Z,168.26
2023-05-09T11:56:08.823Z,168.40
2023-05-09T11:57:08.789Z,168.35
2023-05-09T11:58:08.714Z,167.98
2023-05-09T11:59:08.697Z,166.86
2023-05-09T12:00:08.665Z,165.73
2023-05-09T12:01:11.183Z,165.03
2023-05-09T12:02:08.636Z,165.29
2023-05-09T12:03:08.617Z,164.10
2023-05-09T12:04:08.565Z,163.50
2023-05-09T12:05:08.536Z,163.23
2023-05-09T12:06:08.457Z,162.34
2023-05-09T12:07:08.430Z,161.67
2023-05-09T12:08:08.399Z,161.62
2023-05-09T12:09:08.371Z,162.83
2023-05-09T12:10:08.332Z,162.60
2023-05-09T12:11:08.295Z,162.45
2023-05-09T12:12:08.281Z,160.52
2023-05-09T12:13:08.257Z,160.57
2023-05-09T12:14:08.240Z,159.51
2023-05-09T12:15:08.219Z,159.21
2023-05-09T12:16:08.227Z,158.67
2023-05-09T12:17:08.208Z,157.54
2023-05-09T12:18:08.239Z,158.02
2023-05-09T12:19:08.077Z,157.23
2023-05-09T12:20:08.145Z,155.59
2023-05-09T12:21:08.010Z,155.04
2023-05-09T12:22:07.977Z,155.49
2023-05-09T12:23:07.943Z,155.01
2023-05-09T12:24:07.908Z,153.54
2023-05-09T12:25:07.916Z,155.53
2023-05-09T12:26:07.840Z,154.90
2023-05-09T12:27:07.812Z,152.92
2023-05-09T12:28:07.775Z,153.10
2023-05-09T12:29:07.747Z,153.68
2023-05-09T12:30:07.731Z,151.97